sensor_id;sensor_type;location;lat;lon;timestamp;temperature;humidity
66670;DHT22;53568;52.164;4.472;2022-07-11T16:54:04;22.85;66.00
66670;DHT22;53568;52.164;4.472;2022-07-11T16:56:30;22.76;65.81
66670;DHT22;53568;52.164;4.472;2022-07-11T16:58:56;22.58;66.54
66670;DHT22;53568;52.164;4.472;2022-07-11T17:01:21;22.59;66.69
66670;DHT22;53568;52.164;4.472;2022-07-11T17:03:47;22.58;66.46
66670;DHT22;53568;52.164;4.472;2022-07-11T17:06:12;22.48;66.30
66670;DHT22;53568;52.164;4.472;2022-07-11T17:08:42;22.32;67.10
66670;DHT22;53568;52.164;4.472;2022-07-11T17:11:12;22.21;67.26
66670;DHT22;53568;52.164;4.472;2022-07-11T17:13:40;22.26;67.11
66670;DHT22;53568;52.164;4.472;2022-07-11T17:16:06;22.19;67.10
66670;DHT22;53568;52.164;4.472;2022-07-11T17:18:35;22.14;67.72
66670;DHT22;53568;52.164;4.472;2022-07-11T17:21:02;22.19;67.71
66670;DHT22;53568;52.164;4.472;2022-07-11T17:23:28;22.24;67.40
66670;DHT22;53568;52.164;4.472;2022-07-11T17:25:56;22.22;67.86
66670;DHT22;53568;52.164;4.472;2022-07-11T17:28:25;22.25;67.32
66670;DHT22;53568;52.164;4.472;2022-07-11T17:30:56;22.08;67.75
66670;DHT22;53568;52.164;4.472;2022-07-11T17:33:22;22.16;67.47
66670;DHT22;53568;52.164;4.472;2022-07-11T17:35:49;22.24;67.50
66670;DHT22;53568;52.164;4.472;2022-07-11T17:38:16;22.35;66.78
66670;DHT22;53568;52.164;4.472;2022-07-11T17:40:44;22.36;66.59
66670;DHT22;53568;52.164;4.472;2022-07-11T17:43:10;22.39;65.85
66670;DHT22;53568;52.164;4.472;2022-07-11T17:45:36;22.35;65.85
66670;DHT22;53568;52.164;4.472;2022-07-11T17:48:05;22.28;65.28
66670;DHT22;53568;52.164;4.472;2022-07-11T17:50:31;22.48;65.33
66670;DHT22;53568;52.164;4.472;2022-07-11T17:52:59;22.58;65.42
66670;DHT22;53568;52.164;4.472;2022-07-11T17:55:25;22.58;65.27
66670;DHT22;53568;52.164;4.472;2022-07-11T17:57:50;22.59;65.10
66670;DHT22;53568;52.164;4.472;2022-07-11T18:00:16;22.59;65.40
66670;DHT22;53568;52.164;4.472;2022-07-11T18:02:43;22.69;64.81
66670;DHT22;53568;52.164;4.472;2022-07-11T18:05:10;22.79;64.31
66670;DHT22;53568;52.164;4.472;2022-07-11T18:07:37;22.80;64.44
66670;DHT22;53568;52.164;4.472;2022-07-11T18:10:03;22.79;64.77
66670;DHT22;53568;52.164;4.472;2022-07-11T18:12:29;22.70;65.11
66670;DHT22;53568;52.164;4.472;2022-07-11T18:14:56;22.70;65.51
66670;DHT22;53568;52.164;4.472;2022-07-11T18:17:23;22.59;65.76
66670;DHT22;53568;52.164;4.472;2022-07-11T18:19:53;22.65;65.64
66670;DHT22;53568;52.164;4.472;2022-07-11T18:22:21;22.79;65.14
66670;DHT22;53568;52.164;4.472;2022-07-11T18:24:47;22.85;65.15
66670;DHT22;53568;52.164;4.472;2022-07-11T18:27:12;22.99;64.92
66670;DHT22;53568;52.164;4.472;2022-07-11T18:29:38;23.22;63.68
66670;DHT22;53568;52.164;4.472;2022-07-11T18:32:04;23.16;63.85
66670;DHT22;53568;52.164;4.472;2022-07-11T18:34:31;22.92;64.34
66670;DHT22;53568;52.164;4.472;2022-07-11T18:36:56;22.92;64.83
66670;DHT22;53568;52.164;4.472;2022-07-11T18:39:25;22.85;64.92
66670;DHT22;53568;52.164;4.472;2022-07-11T18:42:10;22.77;65.23
66670;DHT22;53568;52.164;4.472;2022-07-11T18:44:36;22.59;65.53
66670;DHT22;53568;52.164;4.472;2022-07-11T18:47:05;22.51;65.90
66670;DHT22;53568;52.164;4.472;2022-07-11T18:49:32;22.49;66.22
66670;DHT22;53568;52.164;4.472;2022-07-11T18:51:58;22.35;66.72
66670;DHT22;53568;52.164;4.472;2022-07-11T18:54:28;22.48;66.64
66670;DHT22;53568;52.164;4.472;2022-07-11T18:56:55;22.48;66.51
66670;DHT22;53568;52.164;4.472;2022-07-11T18:59:21;22.38;66.84
66670;DHT22;53568;52.164;4.472;2022-07-11T19:01:48;22.35;67.16
66670;DHT22;53568;52.164;4.472;2022-07-11T19:04:18;22.39;67.05
66670;DHT22;53568;52.164;4.472;2022-07-11T19:06:53;22.59;66.49
66670;DHT22;53568;52.164;4.472;2022-07-11T19:09:18;22.45;66.74
66670;DHT22;53568;52.164;4.472;2022-07-11T19:11:46;22.45;66.95
66670;DHT22;53568;52.164;4.472;2022-07-11T19:14:12;22.55;66.67
66670;DHT22;53568;52.164;4.472;2022-07-11T19:16:42;22.52;67.01
66670;DHT22;53568;52.164;4.472;2022-07-11T19:19:08;22.56;66.88
66670;DHT22;53568;52.164;4.472;2022-07-11T19:21:34;22.62;66.97
66670;DHT22;53568;52.164;4.472;2022-07-11T19:23:59;22.69;66.66
66670;DHT22;53568;52.164;4.472;2022-07-11T19:26:25;22.69;66.68
66670;DHT22;53568;52.164;4.472;2022-07-11T19:28:51;22.85;66.18
66670;DHT22;53568;52.164;4.472;2022-07-11T19:31:16;22.83;66.38
66670;DHT22;53568;52.164;4.472;2022-07-11T19:33:42;22.85;66.31
66670;DHT22;53568;52.164;4.472;2022-07-11T19:36:07;22.83;66.46
66670;DHT22;53568;52.164;4.472;2022-07-11T19:38:33;22.96;66.10
66670;DHT22;53568;52.164;4.472;2022-07-11T19:41:01;23.02;66.07
66670;DHT22;53568;52.164;4.472;2022-07-11T19:43:27;22.86;66.47
66670;DHT22;53568;52.164;4.472;2022-07-11T19:45:54;22.92;66.61
66670;DHT22;53568;52.164;4.472;2022-07-11T19:48:20;22.96;66.40
66670;DHT22;53568;52.164;4.472;2022-07-11T19:50:46;23.00;66.23
66670;DHT22;53568;52.164;4.472;2022-07-11T19:53:13;23.03;65.54
66670;DHT22;53568;52.164;4.472;2022-07-11T19:55:38;23.03;65.23
66670;DHT22;53568;52.164;4.472;2022-07-11T19:58:22;22.95;65.44
66670;DHT22;53568;52.164;4.472;2022-07-11T20:00:50;22.86;65.82
66670;DHT22;53568;52.164;4.472;2022-07-11T20:03:16;22.76;65.98
66670;DHT22;53568;52.164;4.472;2022-07-11T20:05:43;22.66;66.38
66670;DHT22;53568;52.164;4.472;2022-07-11T20:08:09;22.56;66.88
66670;DHT22;53568;52.164;4.472;2022-07-11T20:10:35;22.52;67.13
66670;DHT22;53568;52.164;4.472;2022-07-11T20:13:01;22.55;66.99
66670;DHT22;53568;52.164;4.472;2022-07-11T20:15:27;22.53;66.74
66670;DHT22;53568;52.164;4.472;2022-07-11T20:17:52;22.39;67.43
66670;DHT22;53568;52.164;4.472;2022-07-11T20:20:18;22.45;67.06
66670;DHT22;53568;52.164;4.472;2022-07-11T20:22:44;22.44;67.06
66670;DHT22;53568;52.164;4.472;2022-07-11T20:25:11;22.42;67.19
66670;DHT22;53568;52.164;4.472;2022-07-11T20:27:36;22.38;67.34
66670;DHT22;53568;52.164;4.472;2022-07-11T20:30:03;22.45;66.99
66670;DHT22;53568;52.164;4.472;2022-07-11T20:32:29;22.42;66.91
66670;DHT22;53568;52.164;4.472;2022-07-11T20:34:55;22.34;67.33
66670;DHT22;53568;52.164;4.472;2022-07-11T20:37:20;22.34;67.32
66670;DHT22;53568;52.164;4.472;2022-07-11T20:39:46;22.34;67.33
66670;DHT22;53568;52.164;4.472;2022-07-11T20:42:11;22.36;66.96
66670;DHT22;53568;52.164;4.472;2022-07-11T20:44:37;22.28;67.04
66670;DHT22;53568;52.164;4.472;2022-07-11T20:47:03;22.16;67.61
66670;DHT22;53568;52.164;4.472;2022-07-11T20:49:28;22.00;67.99
66670;DHT22;53568;52.164;4.472;2022-07-11T20:51:54;21.91;68.55
66670;DHT22;53568;52.164;4.472;2022-07-11T20:54:20;21.87;68.27
66670;DHT22;53568;52.164;4.472;2022-07-11T20:56:47;21.88;68.34
66670;DHT22;53568;52.164;4.472;2022-07-11T20:59:12;21.80;68.52
66670;DHT22;53568;52.164;4.472;2022-07-11T21:01:38;21.78;68.43
66670;DHT22;53568;52.164;4.472;2022-07-11T21:04:03;21.73;68.39
66670;DHT22;53568;52.164;4.472;2022-07-11T21:06:29;21.71;68.37
66670;DHT22;53568;52.164;4.472;2022-07-11T21:08:54;21.70;68.37
66670;DHT22;53568;52.164;4.472;2022-07-11T21:11:20;21.64;68.48
66670;DHT22;53568;52.164;4.472;2022-07-11T21:13:46;21.61;68.47
66670;DHT22;53568;52.164;4.472;2022-07-11T21:16:11;21.61;68.19
66670;DHT22;53568;52.164;4.472;2022-07-11T21:18:37;21.60;68.27
66670;DHT22;53568;52.164;4.472;2022-07-11T21:21:03;21.57;68.38
66670;DHT22;53568;52.164;4.472;2022-07-11T21:23:29;21.57;68.33
66670;DHT22;53568;52.164;4.472;2022-07-11T21:25:54;21.60;68.08
66670;DHT22;53568;52.164;4.472;2022-07-11T21:28:20;21.53;68.28
66670;DHT22;53568;52.164;4.472;2022-07-11T21:30:45;21.46;68.76
66670;DHT22;53568;52.164;4.472;2022-07-11T21:33:11;21.51;68.76
66670;DHT22;53568;52.164;4.472;2022-07-11T21:35:36;21.53;68.56
66670;DHT22;53568;52.164;4.472;2022-07-11T21:38:03;21.55;68.56
66670;DHT22;53568;52.164;4.472;2022-07-11T21:40:28;21.61;68.40
66670;DHT22;53568;52.164;4.472;2022-07-11T21:42:54;21.65;68.34
66670;DHT22;53568;52.164;4.472;2022-07-11T21:45:24;21.71;68.20
66670;DHT22;53568;52.164;4.472;2022-07-11T21:47:50;21.78;67.67
66670;DHT22;53568;52.164;4.472;2022-07-11T21:50:17;21.84;67.34
66670;DHT22;53568;52.164;4.472;2022-07-11T21:52:42;21.81;67.35
66670;DHT22;53568;52.164;4.472;2022-07-11T21:55:08;21.80;67.44
66670;DHT22;53568;52.164;4.472;2022-07-11T21:57:34;21.71;67.81
66670;DHT22;53568;52.164;4.472;2022-07-11T21:59:59;21.70;68.01
66670;DHT22;53568;52.164;4.472;2022-07-11T22:02:25;21.62;68.37
66670;DHT22;53568;52.164;4.472;2022-07-11T22:04:50;21.62;68.28
66670;DHT22;53568;52.164;4.472;2022-07-11T22:07:16;21.60;68.53
66670;DHT22;53568;52.164;4.472;2022-07-11T22:09:42;21.60;68.56
66670;DHT22;53568;52.164;4.472;2022-07-11T22:12:07;21.58;68.72
66670;DHT22;53568;52.164;4.472;2022-07-11T22:14:33;21.55;68.54
66670;DHT22;53568;52.164;4.472;2022-07-11T22:16:58;21.54;68.47
66670;DHT22;53568;52.164;4.472;2022-07-11T22:19:24;21.47;68.90
66670;DHT22;53568;52.164;4.472;2022-07-11T22:21:49;21.53;68.87
66670;DHT22;53568;52.164;4.472;2022-07-11T22:24:15;21.55;68.34
66670;DHT22;53568;52.164;4.472;2022-07-11T22:26:40;21.47;68.63
66670;DHT22;53568;52.164;4.472;2022-07-11T22:29:05;21.40;68.72
66670;DHT22;53568;52.164;4.472;2022-07-11T22:31:31;21.30;69.00
66670;DHT22;53568;52.164;4.472;2022-07-11T22:33:57;21.20;69.43
66670;DHT22;53568;52.164;4.472;2022-07-11T22:36:23;21.11;69.79
66670;DHT22;53568;52.164;4.472;2022-07-11T22:38:48;21.10;69.68
66670;DHT22;53568;52.164;4.472;2022-07-11T22:41:14;21.07;69.86
66670;DHT22;53568;52.164;4.472;2022-07-11T22:43:40;21.14;69.70
66670;DHT22;53568;52.164;4.472;2022-07-11T22:46:05;21.19;69.50
66670;DHT22;53568;52.164;4.472;2022-07-11T22:48:31;21.24;69.16
66670;DHT22;53568;52.164;4.472;2022-07-11T22:50:56;21.34;68.85
66670;DHT22;53568;52.164;4.472;2022-07-11T22:53:22;21.40;68.70
66670;DHT22;53568;52.164;4.472;2022-07-11T22:55:47;21.46;68.30
66670;DHT22;53568;52.164;4.472;2022-07-11T22:58:12;21.41;68.53
66670;DHT22;53568;52.164;4.472;2022-07-11T23:00:38;21.43;68.64
66670;DHT22;53568;52.164;4.472;2022-07-11T23:03:04;21.46;68.38
66670;DHT22;53568;52.164;4.472;2022-07-11T23:05:30;21.49;68.16
66670;DHT22;53568;52.164;4.472;2022-07-11T23:07:57;21.47;68.17
66670;DHT22;53568;52.164;4.472;2022-07-11T23:10:24;21.49;68.09
66670;DHT22;53568;52.164;4.472;2022-07-11T23:12:50;21.46;68.22
66670;DHT22;53568;52.164;4.472;2022-07-11T23:15:15;21.41;68.38
66670;DHT22;53568;52.164;4.472;2022-07-11T23:17:41;21.39;68.52
66670;DHT22;53568;52.164;4.472;2022-07-11T23:20:07;21.39;68.62
66670;DHT22;53568;52.164;4.472;2022-07-11T23:22:34;21.39;68.56
66670;DHT22;53568;52.164;4.472;2022-07-11T23:25:01;21.36;68.85
66670;DHT22;53568;52.164;4.472;2022-07-11T23:27:26;21.39;68.69
66670;DHT22;53568;52.164;4.472;2022-07-11T23:29:54;21.37;68.69
66670;DHT22;53568;52.164;4.472;2022-07-11T23:32:20;21.39;68.68
66670;DHT22;53568;52.164;4.472;2022-07-11T23:34:48;21.36;68.88
66670;DHT22;53568;52.164;4.472;2022-07-11T23:37:14;21.34;68.83
66670;DHT22;53568;52.164;4.472;2022-07-11T23:39:39;21.37;68.76
66670;DHT22;53568;52.164;4.472;2022-07-11T23:42:05;21.37;68.58
66670;DHT22;53568;52.164;4.472;2022-07-11T23:44:30;21.41;68.50
66670;DHT22;53568;52.164;4.472;2022-07-11T23:46:56;21.43;68.46
66670;DHT22;53568;52.164;4.472;2022-07-11T23:49:21;21.41;68.40
66670;DHT22;53568;52.164;4.472;2022-07-11T23:51:47;21.43;68.31
66670;DHT22;53568;52.164;4.472;2022-07-11T23:54:12;21.33;68.61
66670;DHT22;53568;52.164;4.472;2022-07-11T23:56:38;21.23;69.00
66670;DHT22;53568;52.164;4.472;2022-07-11T23:59:04;21.14;69.27
